sensor_id;sensor_type;location;lat;lon;timestamp;P1;durP1;ratioP1;P2;durP2;ratioP2
13218;SDS011;6674;49.152;11.918;2024-03-02T00:01:42;44.23;;;30.87;;
13218;SDS011;6674;49.152;11.918;2024-03-02T00:04:09;49.33;;;33.73;;
13218;SDS011;6674;49.152;11.918;2024-03-02T00:06:36;39.43;;;29.57;;
13218;SDS011;6674;49.152;11.918;2024-03-02T00:09:02;44.83;;;32.17;;
13218;SDS011;6674;49.152;11.918;2024-03-02T00:11:29;41.40;;;29.90;;
13218;SDS011;6674;49.152;11.918;2024-03-02T00:13:55;41.23;;;31.27;;
13218;SDS011;6674;49.152;11.918;2024-03-02T00:16:23;36.50;;;27.70;;
13218;SDS011;6674;49.152;11.918;2024-03-02T00:18:50;32.60;;;25.33;;
13218;SDS011;6674;49.152;11.918;2024-03-02T00:21:17;41.47;;;29.27;;
13218;SDS011;6674;49.152;11.918;2024-03-02T00:23:50;40.40;;;28.53;;
13218;SDS011;6674;49.152;11.918;2024-03-02T00:26:17;48.27;;;32.57;;
13218;SDS011;6674;49.152;11.918;2024-03-02T00:28:43;40.47;;;28.47;;
13218;SDS011;6674;49.152;11.918;2024-03-02T00:31:11;37.00;;;27.73;;
13218;SDS011;6674;49.152;11.918;2024-03-02T00:33:40;36.67;;;28.37;;
13218;SDS011;6674;49.152;11.918;2024-03-02T00:36:07;42.47;;;30.03;;
13218;SDS011;6674;49.152;11.918;2024-03-02T00:38:34;42.00;;;29.67;;
13218;SDS011;6674;49.152;11.918;2024-03-02T00:41:03;47.93;;;33.10;;
13218;SDS011;6674;49.152;11.918;2024-03-02T00:43:39;51.73;;;35.43;;
13218;SDS011;6674;49.152;11.918;2024-03-02T00:46:06;45.97;;;32.37;;
13218;SDS011;6674;49.152;11.918;2024-03-02T00:48:32;48.50;;;35.13;;
13218;SDS011;6674;49.152;11.918;2024-03-02T00:51:02;54.13;;;37.00;;
13218;SDS011;6674;49.152;11.918;2024-03-02T00:53:29;57.60;;;38.63;;
13218;SDS011;6674;49.152;11.918;2024-03-02T00:55:56;51.43;;;35.77;;
13218;SDS011;6674;49.152;11.918;2024-03-02T00:58:22;55.50;;;37.70;;
13218;SDS011;6674;49.152;11.918;2024-03-02T01:00:49;49.53;;;34.97;;
13218;SDS011;6674;49.152;11.918;2024-03-02T01:03:16;59.07;;;38.80;;
13218;SDS011;6674;49.152;11.918;2024-03-02T01:05:43;55.60;;;37.83;;
13218;SDS011;6674;49.152;11.918;2024-03-02T01:08:11;47.67;;;32.57;;
13218;SDS011;6674;49.152;11.918;2024-03-02T01:10:38;56.30;;;37.33;;
13218;SDS011;6674;49.152;11.918;2024-03-02T01:13:04;47.40;;;32.27;;
13218;SDS011;6674;49.152;11.918;2024-03-02T01:15:31;42.63;;;30.90;;
13218;SDS011;6674;49.152;11.918;2024-03-02T01:17:58;44.43;;;31.70;;
13218;SDS011;6674;49.152;11.918;2024-03-02T01:20:24;43.43;;;29.70;;
13218;SDS011;6674;49.152;11.918;2024-03-02T01:22:51;58.77;;;36.93;;
13218;SDS011;6674;49.152;11.918;2024-03-02T01:25:19;55.27;;;37.00;;
13218;SDS011;6674;49.152;11.918;2024-03-02T01:27:47;43.87;;;32.13;;
13218;SDS011;6674;49.152;11.918;2024-03-02T01:30:13;52.10;;;34.63;;
13218;SDS011;6674;49.152;11.918;2024-03-02T01:32:40;43.70;;;31.83;;
13218;SDS011;6674;49.152;11.918;2024-03-02T01:35:06;48.80;;;33.63;;
13218;SDS011;6674;49.152;11.918;2024-03-02T01:37:34;45.07;;;31.90;;
13218;SDS011;6674;49.152;11.918;2024-03-02T01:40:00;44.43;;;31.93;;
13218;SDS011;6674;49.152;11.918;2024-03-02T01:42:29;41.43;;;31.70;;
13218;SDS011;6674;49.152;11.918;2024-03-02T01:44:55;42.37;;;30.43;;
13218;SDS011;6674;49.152;11.918;2024-03-02T01:47:22;31.80;;;25.00;;
13218;SDS011;6674;49.152;11.918;2024-03-02T01:49:48;38.70;;;28.77;;
13218;SDS011;6674;49.152;11.918;2024-03-02T01:52:15;43.20;;;30.17;;
13218;SDS011;6674;49.152;11.918;2024-03-02T01:54:42;35.47;;;26.57;;
13218;SDS011;6674;49.152;11.918;2024-03-02T01:57:09;46.90;;;29.87;;
13218;SDS011;6674;49.152;11.918;2024-03-02T01:59:37;82.93;;;31.90;;
13218;SDS011;6674;49.152;11.918;2024-03-02T02:02:03;31.73;;;26.97;;
13218;SDS011;6674;49.152;11.918;2024-03-02T02:04:30;34.03;;;25.03;;
13218;SDS011;6674;49.152;11.918;2024-03-02T02:06:56;52.20;;;29.00;;
13218;SDS011;6674;49.152;11.918;2024-03-02T02:09:23;36.50;;;27.20;;
13218;SDS011;6674;49.152;11.918;2024-03-02T02:11:50;38.70;;;27.10;;
13218;SDS011;6674;49.152;11.918;2024-03-02T02:14:16;33.27;;;25.87;;
13218;SDS011;6674;49.152;11.918;2024-03-02T02:16:44;50.63;;;29.00;;
13218;SDS011;6674;49.152;11.918;2024-03-02T02:19:11;34.47;;;24.57;;
13218;SDS011;6674;49.152;11.918;2024-03-02T02:21:38;40.27;;;28.07;;
13218;SDS011;6674;49.152;11.918;2024-03-02T02:24:08;43.73;;;27.10;;
13218;SDS011;6674;49.152;11.918;2024-03-02T02:26:34;31.60;;;24.30;;
13218;SDS011;6674;49.152;11.918;2024-03-02T02:29:00;36.67;;;25.30;;
13218;SDS011;6674;49.152;11.918;2024-03-02T02:31:28;30.13;;;24.30;;
13218;SDS011;6674;49.152;11.918;2024-03-02T02:34:02;29.23;;;24.23;;
13218;SDS011;6674;49.152;11.918;2024-03-02T02:36:28;36.67;;;24.77;;
13218;SDS011;6674;49.152;11.918;2024-03-02T02:38:56;47.57;;;26.43;;
13218;SDS011;6674;49.152;11.918;2024-03-02T02:41:23;89.87;;;30.00;;
13218;SDS011;6674;49.152;11.918;2024-03-02T02:43:50;75.90;;;27.93;;
13218;SDS011;6674;49.152;11.918;2024-03-02T02:46:16;57.90;;;26.50;;
13218;SDS011;6674;49.152;11.918;2024-03-02T02:48:43;91.87;;;28.17;;
13218;SDS011;6674;49.152;11.918;2024-03-02T02:51:09;69.63;;;27.30;;
13218;SDS011;6674;49.152;11.918;2024-03-02T02:53:35;20.90;;;17.80;;
13218;SDS011;6674;49.152;11.918;2024-03-02T02:56:06;81.63;;;25.43;;
13218;SDS011;6674;49.152;11.918;2024-03-02T02:58:33;53.70;;;22.03;;
13218;SDS011;6674;49.152;11.918;2024-03-02T03:00:59;24.70;;;18.90;;
13218;SDS011;6674;49.152;11.918;2024-03-02T03:03:26;30.30;;;20.70;;
13218;SDS011;6674;49.152;11.918;2024-03-02T03:05:52;21.77;;;18.57;;
13218;SDS011;6674;49.152;11.918;2024-03-02T03:08:18;20.50;;;17.80;;
13218;SDS011;6674;49.152;11.918;2024-03-02T03:10:45;19.40;;;17.30;;
13218;SDS011;6674;49.152;11.918;2024-03-02T03:13:13;23.13;;;19.20;;
13218;SDS011;6674;49.152;11.918;2024-03-02T03:15:39;19.40;;;17.20;;
13218;SDS011;6674;49.152;11.918;2024-03-02T03:18:05;24.03;;;18.47;;
13218;SDS011;6674;49.152;11.918;2024-03-02T03:20:32;24.33;;;18.20;;
13218;SDS011;6674;49.152;11.918;2024-03-02T03:22:59;49.90;;;21.87;;
13218;SDS011;6674;49.152;11.918;2024-03-02T03:25:25;26.67;;;17.67;;
13218;SDS011;6674;49.152;11.918;2024-03-02T03:27:52;41.93;;;19.90;;
13218;SDS011;6674;49.152;11.918;2024-03-02T03:30:19;23.90;;;18.33;;
13218;SDS011;6674;49.152;11.918;2024-03-02T03:32:46;55.37;;;20.33;;
13218;SDS011;6674;49.152;11.918;2024-03-02T03:35:13;26.43;;;18.10;;
13218;SDS011;6674;49.152;11.918;2024-03-02T03:37:40;48.70;;;19.73;;
13218;SDS011;6674;49.152;11.918;2024-03-02T03:40:07;17.87;;;15.97;;
13218;SDS011;6674;49.152;11.918;2024-03-02T03:42:36;31.60;;;18.23;;
13218;SDS011;6674;49.152;11.918;2024-03-02T03:45:03;30.23;;;18.37;;
13218;SDS011;6674;49.152;11.918;2024-03-02T03:47:32;36.87;;;18.80;;
13218;SDS011;6674;49.152;11.918;2024-03-02T03:49:58;46.93;;;19.30;;
13218;SDS011;6674;49.152;11.918;2024-03-02T03:52:26;18.80;;;16.17;;
13218;SDS011;6674;49.152;11.918;2024-03-02T03:54:52;39.83;;;17.83;;
13218;SDS011;6674;49.152;11.918;2024-03-02T03:57:19;19.77;;;16.10;;
13218;SDS011;6674;49.152;11.918;2024-03-02T03:59:46;15.50;;;13.90;;
13218;SDS011;6674;49.152;11.918;2024-03-02T04:02:12;16.23;;;13.97;;
13218;SDS011;6674;49.152;11.918;2024-03-02T04:04:40;20.03;;;15.87;;
13218;SDS011;6674;49.152;11.918;2024-03-02T04:07:06;15.60;;;13.90;;
13218;SDS011;6674;49.152;11.918;2024-03-02T04:09:33;16.47;;;14.77;;
13218;SDS011;6674;49.152;11.918;2024-03-02T04:11:59;13.93;;;12.47;;
13218;SDS011;6674;49.152;11.918;2024-03-02T04:14:25;19.70;;;15.37;;
13218;SDS011;6674;49.152;11.918;2024-03-02T04:16:52;14.30;;;12.67;;
13218;SDS011;6674;49.152;11.918;2024-03-02T04:19:18;36.73;;;16.50;;
13218;SDS011;6674;49.152;11.918;2024-03-02T04:21:46;19.97;;;15.40;;
13218;SDS011;6674;49.152;11.918;2024-03-02T04:24:13;33.97;;;17.50;;
13218;SDS011;6674;49.152;11.918;2024-03-02T04:26:39;15.73;;;14.13;;
13218;SDS011;6674;49.152;11.918;2024-03-02T04:29:05;28.70;;;16.73;;
13218;SDS011;6674;49.152;11.918;2024-03-02T04:31:32;19.07;;;15.23;;
13218;SDS011;6674;49.152;11.918;2024-03-02T04:33:58;15.90;;;14.27;;
13218;SDS011;6674;49.152;11.918;2024-03-02T04:36:24;15.50;;;13.93;;
13218;SDS011;6674;49.152;11.918;2024-03-02T04:38:52;14.83;;;13.30;;
13218;SDS011;6674;49.152;11.918;2024-03-02T04:41:18;11.50;;;10.40;;
13218;SDS011;6674;49.152;11.918;2024-03-02T04:43:45;12.57;;;11.23;;
13218;SDS011;6674;49.152;11.918;2024-03-02T04:46:11;11.83;;;10.70;;
13218;SDS011;6674;49.152;11.918;2024-03-02T04:48:39;14.27;;;12.77;;
13218;SDS011;6674;49.152;11.918;2024-03-02T04:51:05;14.63;;;13.13;;
13218;SDS011;6674;49.152;11.918;2024-03-02T04:53:32;12.37;;;11.17;;
13218;SDS011;6674;49.152;11.918;2024-03-02T04:55:59;15.17;;;13.57;;
13218;SDS011;6674;49.152;11.918;2024-03-02T04:58:55;20.10;;;16.20;;
13218;SDS011;6674;49.152;11.918;2024-03-02T05:01:21;18.40;;;16.50;;
13218;SDS011;6674;49.152;11.918;2024-03-02T05:03:48;136.27;;;23.53;;
13218;SDS011;6674;49.152;11.918;2024-03-02T05:06:15;78.00;;;21.07;;
13218;SDS011;6674;49.152;11.918;2024-03-02T05:08:41;25.90;;;17.33;;
13218;SDS011;6674;49.152;11.918;2024-03-02T05:11:11;55.13;;;20.77;;
13218;SDS011;6674;49.152;11.918;2024-03-02T05:14:15;31.37;;;16.37;;
13218;SDS011;6674;49.152;11.918;2024-03-02T05:16:41;123.03;;;24.13;;
13218;SDS011;6674;49.152;11.918;2024-03-02T05:19:08;75.37;;;20.93;;
13218;SDS011;6674;49.152;11.918;2024-03-02T05:21:34;41.97;;;17.27;;
13218;SDS011;6674;49.152;11.918;2024-03-02T05:24:01;139.30;;;23.53;;
13218;SDS011;6674;49.152;11.918;2024-03-02T05:26:29;99.43;;;21.20;;
13218;SDS011;6674;49.152;11.918;2024-03-02T05:28:55;107.13;;;23.30;;
13218;SDS011;6674;49.152;11.918;2024-03-02T05:31:21;66.80;;;19.87;;
13218;SDS011;6674;49.152;11.918;2024-03-02T05:33:48;67.30;;;20.17;;
13218;SDS011;6674;49.152;11.918;2024-03-02T05:36:14;52.27;;;20.13;;
13218;SDS011;6674;49.152;11.918;2024-03-02T05:38:41;64.33;;;21.17;;
13218;SDS011;6674;49.152;11.918;2024-03-02T05:41:08;19.37;;;17.30;;
13218;SDS011;6674;49.152;11.918;2024-03-02T05:43:36;45.53;;;20.03;;
13218;SDS011;6674;49.152;11.918;2024-03-02T05:46:04;18.13;;;16.30;;
13218;SDS011;6674;49.152;11.918;2024-03-02T05:48:30;20.80;;;17.27;;
13218;SDS011;6674;49.152;11.918;2024-03-02T05:50:56;32.77;;;18.80;;
13218;SDS011;6674;49.152;11.918;2024-03-02T05:53:23;17.33;;;15.53;;
13218;SDS011;6674;49.152;11.918;2024-03-02T05:55:49;19.63;;;17.63;;
13218;SDS011;6674;49.152;11.918;2024-03-02T05:58:19;17.87;;;15.97;;
13218;SDS011;6674;49.152;11.918;2024-03-02T06:00:59;16.87;;;15.17;;
13218;SDS011;6674;49.152;11.918;2024-03-02T06:03:25;16.40;;;14.13;;
13218;SDS011;6674;49.152;11.918;2024-03-02T06:05:53;17.40;;;15.50;;
13218;SDS011;6674;49.152;11.918;2024-03-02T06:08:19;15.30;;;13.63;;
13218;SDS011;6674;49.152;11.918;2024-03-02T06:10:46;16.23;;;14.63;;
13218;SDS011;6674;49.152;11.918;2024-03-02T06:13:12;13.70;;;12.30;;
13218;SDS011;6674;49.152;11.918;2024-03-02T06:15:39;17.47;;;15.57;;
13218;SDS011;6674;49.152;11.918;2024-03-02T06:18:07;19.27;;;16.40;;
13218;SDS011;6674;49.152;11.918;2024-03-02T06:20:33;15.77;;;14.17;;
13218;SDS011;6674;49.152;11.918;2024-03-02T06:23:00;14.47;;;13.07;;
13218;SDS011;6674;49.152;11.918;2024-03-02T06:25:26;15.67;;;14.10;;
13218;SDS011;6674;49.152;11.918;2024-03-02T06:27:53;16.50;;;14.80;;
13218;SDS011;6674;49.152;11.918;2024-03-02T06:30:19;15.90;;;14.20;;
13218;SDS011;6674;49.152;11.918;2024-03-02T06:32:46;14.83;;;13.33;;
13218;SDS011;6674;49.152;11.918;2024-03-02T06:35:13;37.33;;;19.10;;
13218;SDS011;6674;49.152;11.918;2024-03-02T06:37:40;16.57;;;14.87;;
13218;SDS011;6674;49.152;11.918;2024-03-02T06:40:07;26.43;;;17.40;;
13218;SDS011;6674;49.152;11.918;2024-03-02T06:42:33;17.60;;;15.73;;
13218;SDS011;6674;49.152;11.918;2024-03-02T06:45:00;17.80;;;15.83;;
13218;SDS011;6674;49.152;11.918;2024-03-02T06:47:26;15.77;;;14.17;;
13218;SDS011;6674;49.152;11.918;2024-03-02T06:49:53;16.10;;;14.47;;
13218;SDS011;6674;49.152;11.918;2024-03-02T06:52:21;17.37;;;15.67;;
13218;SDS011;6674;49.152;11.918;2024-03-02T06:54:47;16.80;;;15.00;;
13218;SDS011;6674;49.152;11.918;2024-03-02T06:57:13;76.87;;;22.93;;
13218;SDS011;6674;49.152;11.918;2024-03-02T06:59:42;19.30;;;17.30;;
13218;SDS011;6674;49.152;11.918;2024-03-02T07:02:08;18.40;;;16.40;;
13218;SDS011;6674;49.152;11.918;2024-03-02T07:04:34;17.40;;;15.60;;
13218;SDS011;6674;49.152;11.918;2024-03-02T07:07:01;19.40;;;16.80;;
13218;SDS011;6674;49.152;11.918;2024-03-02T07:09:29;28.97;;;17.93;;
13218;SDS011;6674;49.152;11.918;2024-03-02T07:11:55;20.37;;;18.17;;
13218;SDS011;6674;49.152;11.918;2024-03-02T07:14:22;17.97;;;16.10;;
13218;SDS011;6674;49.152;11.918;2024-03-02T07:17:08;19.43;;;16.00;;
13218;SDS011;6674;49.152;11.918;2024-03-02T07:19:35;18.87;;;16.33;;
13218;SDS011;6674;49.152;11.918;2024-03-02T07:22:01;17.33;;;15.40;;
13218;SDS011;6674;49.152;11.918;2024-03-02T07:24:34;18.50;;;16.30;;
13218;SDS011;6674;49.152;11.918;2024-03-02T07:27:05;32.00;;;18.50;;
13218;SDS011;6674;49.152;11.918;2024-03-02T07:29:30;17.23;;;15.23;;
13218;SDS011;6674;49.152;11.918;2024-03-02T07:31:57;19.37;;;17.27;;
13218;SDS011;6674;49.152;11.918;2024-03-02T07:34:23;20.13;;;17.50;;
13218;SDS011;6674;49.152;11.918;2024-03-02T07:36:49;18.33;;;15.97;;
13218;SDS011;6674;49.152;11.918;2024-03-02T07:39:16;24.60;;;21.13;;
13218;SDS011;6674;49.152;11.918;2024-03-02T07:41:44;23.03;;;18.97;;
13218;SDS011;6674;49.152;11.918;2024-03-02T07:44:11;22.53;;;17.87;;
13218;SDS011;6674;49.152;11.918;2024-03-02T07:46:39;21.80;;;19.13;;
13218;SDS011;6674;49.152;11.918;2024-03-02T07:49:06;21.57;;;18.17;;
13218;SDS011;6674;49.152;11.918;2024-03-02T07:51:32;20.80;;;18.20;;
13218;SDS011;6674;49.152;11.918;2024-03-02T07:53:58;20.17;;;17.97;;
13218;SDS011;6674;49.152;11.918;2024-03-02T07:56:25;29.10;;;22.60;;
13218;SDS011;6674;49.152;11.918;2024-03-02T07:58:53;20.07;;;17.93;;
13218;SDS011;6674;49.152;11.918;2024-03-02T08:01:19;22.33;;;19.67;;
13218;SDS011;6674;49.152;11.918;2024-03-02T08:03:45;25.63;;;21.43;;
13218;SDS011;6674;49.152;11.918;2024-03-02T08:06:13;22.27;;;18.57;;
13218;SDS011;6674;49.152;11.918;2024-03-02T08:08:40;29.37;;;22.30;;
13218;SDS011;6674;49.152;11.918;2024-03-02T08:11:06;28.57;;;24.10;;
13218;SDS011;6674;49.152;11.918;2024-03-02T08:13:32;34.43;;;26.17;;
13218;SDS011;6674;49.152;11.918;2024-03-02T08:16:00;41.63;;;27.03;;
13218;SDS011;6674;49.152;11.918;2024-03-02T08:18:28;33.20;;;25.77;;
13218;SDS011;6674;49.152;11.918;2024-03-02T08:20:55;32.20;;;25.10;;
13218;SDS011;6674;49.152;11.918;2024-03-02T08:23:21;33.80;;;27.23;;
13218;SDS011;6674;49.152;11.918;2024-03-02T08:25:47;36.57;;;29.20;;
13218;SDS011;6674;49.152;11.918;2024-03-02T08:28:14;34.33;;;26.80;;
13218;SDS011;6674;49.152;11.918;2024-03-02T08:30:40;39.03;;;30.40;;
13218;SDS011;6674;49.152;11.918;2024-03-02T08:33:08;31.33;;;25.43;;
13218;SDS011;6674;49.152;11.918;2024-03-02T08:35:35;31.93;;;25.73;;
13218;SDS011;6674;49.152;11.918;2024-03-02T08:38:02;81.10;;;29.97;;
13218;SDS011;6674;49.152;11.918;2024-03-02T08:40:28;30.77;;;23.73;;
13218;SDS011;6674;49.152;11.918;2024-03-02T08:42:56;53.77;;;30.63;;
13218;SDS011;6674;49.152;11.918;2024-03-02T08:45:22;32.77;;;25.40;;
13218;SDS011;6674;49.152;11.918;2024-03-02T08:47:49;34.70;;;25.47;;
13218;SDS011;6674;49.152;11.918;2024-03-02T08:50:17;50.47;;;31.70;;
13218;SDS011;6674;49.152;11.918;2024-03-02T08:52:43;38.47;;;29.37;;
13218;SDS011;6674;49.152;11.918;2024-03-02T08:55:09;66.50;;;37.60;;
13218;SDS011;6674;49.152;11.918;2024-03-02T08:57:37;38.37;;;29.00;;
13218;SDS011;6674;49.152;11.918;2024-03-02T09:00:03;39.07;;;28.53;;
13218;SDS011;6674;49.152;11.918;2024-03-02T09:02:32;43.90;;;30.90;;
13218;SDS011;6674;49.152;11.918;2024-03-02T09:04:59;42.70;;;31.03;;
13218;SDS011;6674;49.152;11.918;2024-03-02T09:07:26;51.80;;;34.30;;
13218;SDS011;6674;49.152;11.918;2024-03-02T09:09:54;44.77;;;31.83;;
13218;SDS011;6674;49.152;11.918;2024-03-02T09:12:20;45.23;;;31.17;;
13218;SDS011;6674;49.152;11.918;2024-03-02T09:14:47;49.10;;;34.13;;
13218;SDS011;6674;49.152;11.918;2024-03-02T09:17:13;51.40;;;34.97;;
13218;SDS011;6674;49.152;11.918;2024-03-02T09:19:39;44.67;;;31.77;;
13218;SDS011;6674;49.152;11.918;2024-03-02T09:22:06;46.60;;;32.37;;
13218;SDS011;6674;49.152;11.918;2024-03-02T09:24:33;44.77;;;31.43;;
13218;SDS011;6674;49.152;11.918;2024-03-02T09:27:00;45.13;;;32.60;;
13218;SDS011;6674;49.152;11.918;2024-03-02T09:29:26;42.27;;;31.00;;
13218;SDS011;6674;49.152;11.918;2024-03-02T09:31:53;40.80;;;29.87;;
13218;SDS011;6674;49.152;11.918;2024-03-02T09:34:19;43.20;;;31.00;;
13218;SDS011;6674;49.152;11.918;2024-03-02T09:36:47;42.20;;;31.63;;
13218;SDS011;6674;49.152;11.918;2024-03-02T09:39:13;38.60;;;29.10;;
13218;SDS011;6674;49.152;11.918;2024-03-02T09:41:42;38.23;;;27.83;;
13218;SDS011;6674;49.152;11.918;2024-03-02T09:44:09;41.50;;;28.97;;
13218;SDS011;6674;49.152;11.918;2024-03-02T09:46:35;40.90;;;28.77;;
13218;SDS011;6674;49.152;11.918;2024-03-02T09:49:01;38.27;;;27.50;;
13218;SDS011;6674;49.152;11.918;2024-03-02T09:51:28;43.20;;;30.40;;
13218;SDS011;6674;49.152;11.918;2024-03-02T09:53:54;42.00;;;30.60;;
13218;SDS011;6674;49.152;11.918;2024-03-02T09:56:21;39.10;;;27.60;;
13218;SDS011;6674;49.152;11.918;2024-03-02T09:58:48;35.93;;;25.33;;
13218;SDS011;6674;49.152;11.918;2024-03-02T10:01:15;38.23;;;27.93;;
13218;SDS011;6674;49.152;11.918;2024-03-02T10:03:41;45.13;;;31.03;;
13218;SDS011;6674;49.152;11.918;2024-03-02T10:06:20;43.23;;;30.67;;
13218;SDS011;6674;49.152;11.918;2024-03-02T10:08:46;38.77;;;30.30;;
13218;SDS011;6674;49.152;11.918;2024-03-02T10:11:24;41.83;;;30.13;;
13218;SDS011;6674;49.152;11.918;2024-03-02T10:13:53;37.57;;;28.10;;
13218;SDS011;6674;49.152;11.918;2024-03-02T10:16:29;38.33;;;27.60;;
13218;SDS011;6674;49.152;11.918;2024-03-02T10:18:56;41.77;;;29.63;;
13218;SDS011;6674;49.152;11.918;2024-03-02T10:21:22;42.27;;;30.80;;
13218;SDS011;6674;49.152;11.918;2024-03-02T10:23:50;38.30;;;28.40;;
13218;SDS011;6674;49.152;11.918;2024-03-02T10:26:17;36.10;;;27.07;;
13218;SDS011;6674;49.152;11.918;2024-03-02T10:28:45;40.37;;;29.03;;
13218;SDS011;6674;49.152;11.918;2024-03-02T10:31:14;44.93;;;32.13;;
13218;SDS011;6674;49.152;11.918;2024-03-02T10:33:40;41.70;;;30.40;;
13218;SDS011;6674;49.152;11.918;2024-03-02T10:36:07;48.40;;;37.20;;
13218;SDS011;6674;49.152;11.918;2024-03-02T10:38:34;36.20;;;27.47;;
13218;SDS011;6674;49.152;11.918;2024-03-02T10:41:01;36.57;;;27.23;;
13218;SDS011;6674;49.152;11.918;2024-03-02T10:43:28;41.67;;;30.47;;
13218;SDS011;6674;49.152;11.918;2024-03-02T10:45:55;37.43;;;29.13;;
13218;SDS011;6674;49.152;11.918;2024-03-02T10:48:24;39.87;;;28.63;;
13218;SDS011;6674;49.152;11.918;2024-03-02T10:50:51;36.40;;;27.43;;
13218;SDS011;6674;49.152;11.918;2024-03-02T10:53:18;35.87;;;27.63;;
13218;SDS011;6674;49.152;11.918;2024-03-02T10:55:45;33.87;;;26.03;;
13218;SDS011;6674;49.152;11.918;2024-03-02T10:58:13;31.83;;;24.90;;
13218;SDS011;6674;49.152;11.918;2024-03-02T11:00:40;32.50;;;24.67;;
13218;SDS011;6674;49.152;11.918;2024-03-02T11:03:07;34.13;;;25.10;;
13218;SDS011;6674;49.152;11.918;2024-03-02T11:05:38;34.83;;;26.40;;
13218;SDS011;6674;49.152;11.918;2024-03-02T11:08:06;32.53;;;24.50;;
13218;SDS011;6674;49.152;11.918;2024-03-02T11:10:34;35.47;;;26.00;;
13218;SDS011;6674;49.152;11.918;2024-03-02T11:13:02;33.20;;;24.77;;
13218;SDS011;6674;49.152;11.918;2024-03-02T11:15:29;31.43;;;23.73;;
13218;SDS011;6674;49.152;11.918;2024-03-02T11:17:56;29.00;;;22.40;;
13218;SDS011;6674;49.152;11.918;2024-03-02T11:20:23;31.97;;;24.23;;
13218;SDS011;6674;49.152;11.918;2024-03-02T11:22:51;32.33;;;24.23;;
13218;SDS011;6674;49.152;11.918;2024-03-02T11:25:24;26.00;;;20.97;;
13218;SDS011;6674;49.152;11.918;2024-03-02T11:28:02;33.33;;;25.40;;
13218;SDS011;6674;49.152;11.918;2024-03-02T11:33:14;31.30;;;23.57;;
13218;SDS011;6674;49.152;11.918;2024-03-02T11:35:42;29.20;;;23.07;;
13218;SDS011;6674;49.152;11.918;2024-03-02T11:38:12;29.23;;;22.03;;
13218;SDS011;6674;49.152;11.918;2024-03-02T11:40:38;28.70;;;22.87;;
13218;SDS011;6674;49.152;11.918;2024-03-02T11:43:07;27.63;;;21.63;;
13218;SDS011;6674;49.152;11.918;2024-03-02T11:45:34;31.93;;;24.93;;
13218;SDS011;6674;49.152;11.918;2024-03-02T11:48:05;34.27;;;25.67;;
13218;SDS011;6674;49.152;11.918;2024-03-02T11:50:33;32.33;;;24.60;;
13218;SDS011;6674;49.152;11.918;2024-03-02T11:53:00;26.77;;;19.73;;
13218;SDS011;6674;49.152;11.918;2024-03-02T11:55:28;29.77;;;22.87;;
13218;SDS011;6674;49.152;11.918;2024-03-02T11:57:56;28.40;;;20.80;;
13218;SDS011;6674;49.152;11.918;2024-03-02T12:00:23;26.43;;;20.73;;
13218;SDS011;6674;49.152;11.918;2024-03-02T12:02:59;24.27;;;19.37;;
13218;SDS011;6674;49.152;11.918;2024-03-02T12:05:26;27.83;;;21.60;;
13218;SDS011;6674;49.152;11.918;2024-03-02T12:07:55;26.60;;;20.50;;
13218;SDS011;6674;49.152;11.918;2024-03-02T12:10:22;25.17;;;19.83;;
13218;SDS011;6674;49.152;11.918;2024-03-02T12:12:55;27.10;;;21.87;;
13218;SDS011;6674;49.152;11.918;2024-03-02T12:15:22;28.30;;;20.13;;
13218;SDS011;6674;49.152;11.918;2024-03-02T12:17:52;22.83;;;17.83;;
13218;SDS011;6674;49.152;11.918;2024-03-02T12:20:19;24.13;;;18.77;;
13218;SDS011;6674;49.152;11.918;2024-03-02T12:22:46;25.23;;;19.83;;
13218;SDS011;6674;49.152;11.918;2024-03-02T12:25:12;24.67;;;19.07;;
13218;SDS011;6674;49.152;11.918;2024-03-02T12:27:39;27.10;;;21.70;;
13218;SDS011;6674;49.152;11.918;2024-03-02T12:30:09;27.20;;;21.70;;
13218;SDS011;6674;49.152;11.918;2024-03-02T12:32:37;24.13;;;19.13;;
13218;SDS011;6674;49.152;11.918;2024-03-02T12:35:05;24.70;;;18.90;;
13218;SDS011;6674;49.152;11.918;2024-03-02T12:37:32;28.43;;;21.67;;
13218;SDS011;6674;49.152;11.918;2024-03-02T12:39:58;27.20;;;21.10;;
13218;SDS011;6674;49.152;11.918;2024-03-02T12:42:25;25.77;;;20.17;;
13218;SDS011;6674;49.152;11.918;2024-03-02T12:44:51;29.53;;;20.60;;
13218;SDS011;6674;49.152;11.918;2024-03-02T12:47:20;23.53;;;19.60;;
13218;SDS011;6674;49.152;11.918;2024-03-02T12:49:48;24.33;;;18.47;;
13218;SDS011;6674;49.152;11.918;2024-03-02T12:52:16;27.13;;;21.40;;
13218;SDS011;6674;49.152;11.918;2024-03-02T12:54:43;24.73;;;19.37;;
13218;SDS011;6674;49.152;11.918;2024-03-02T12:57:10;23.17;;;18.17;;
13218;SDS011;6674;49.152;11.918;2024-03-02T12:59:36;25.70;;;20.13;;
13218;SDS011;6674;49.152;11.918;2024-03-02T13:02:02;21.90;;;18.27;;
13218;SDS011;6674;49.152;11.918;2024-03-02T13:04:30;27.70;;;20.97;;
13218;SDS011;6674;49.152;11.918;2024-03-02T13:06:57;23.57;;;19.47;;
13218;SDS011;6674;49.152;11.918;2024-03-02T13:09:23;24.90;;;19.80;;
13218;SDS011;6674;49.152;11.918;2024-03-02T13:11:50;18.40;;;15.60;;
13218;SDS011;6674;49.152;11.918;2024-03-02T13:14:16;30.60;;;23.03;;
13218;SDS011;6674;49.152;11.918;2024-03-02T13:16:44;31.17;;;24.13;;
13218;SDS011;6674;49.152;11.918;2024-03-02T13:19:12;36.23;;;26.30;;
13218;SDS011;6674;49.152;11.918;2024-03-02T13:21:40;25.93;;;20.20;;
13218;SDS011;6674;49.152;11.918;2024-03-02T13:24:06;21.37;;;17.40;;
13218;SDS011;6674;49.152;11.918;2024-03-02T13:26:33;23.67;;;19.13;;
13218;SDS011;6674;49.152;11.918;2024-03-02T13:29:00;20.97;;;17.20;;
13218;SDS011;6674;49.152;11.918;2024-03-02T13:31:27;19.33;;;15.83;;
13218;SDS011;6674;49.152;11.918;2024-03-02T13:33:53;24.47;;;19.60;;
13218;SDS011;6674;49.152;11.918;2024-03-02T13:36:20;25.07;;;19.77;;
13218;SDS011;6674;49.152;11.918;2024-03-02T13:38:48;24.57;;;18.13;;
13218;SDS011;6674;49.152;11.918;2024-03-02T13:41:14;23.70;;;18.73;;
13218;SDS011;6674;49.152;11.918;2024-03-02T13:43:40;22.00;;;17.70;;
13218;SDS011;6674;49.152;11.918;2024-03-02T13:46:10;23.10;;;19.30;;
13218;SDS011;6674;49.152;11.918;2024-03-02T13:48:36;20.07;;;16.83;;
13218;SDS011;6674;49.152;11.918;2024-03-02T13:51:03;22.43;;;18.60;;
13218;SDS011;6674;49.152;11.918;2024-03-02T13:53:29;21.90;;;17.13;;
13218;SDS011;6674;49.152;11.918;2024-03-02T13:55:58;18.63;;;15.53;;
13218;SDS011;6674;49.152;11.918;2024-03-02T13:58:25;18.83;;;15.33;;
13218;SDS011;6674;49.152;11.918;2024-03-02T14:00:52;17.37;;;15.03;;
13218;SDS011;6674;49.152;11.918;2024-03-02T14:03:21;15.13;;;13.43;;
13218;SDS011;6674;49.152;11.918;2024-03-02T14:05:47;28.40;;;24.23;;
13218;SDS011;6674;49.152;11.918;2024-03-02T14:08:15;20.90;;;18.03;;
13218;SDS011;6674;49.152;11.918;2024-03-02T14:10:42;20.87;;;16.20;;
13218;SDS011;6674;49.152;11.918;2024-03-02T14:13:10;16.77;;;14.00;;
13218;SDS011;6674;49.152;11.918;2024-03-02T14:15:37;15.50;;;13.27;;
13218;SDS011;6674;49.152;11.918;2024-03-02T14:18:04;17.77;;;15.50;;
13218;SDS011;6674;49.152;11.918;2024-03-02T14:20:31;18.07;;;15.33;;
13218;SDS011;6674;49.152;11.918;2024-03-02T14:22:58;16.70;;;14.30;;
13218;SDS011;6674;49.152;11.918;2024-03-02T14:25:26;16.73;;;14.77;;